EmailTwitter


Observations de surface / France / LFBD (07510)

Régions: Québec | Canada | États-Unis | Europe | France | UK | Ailleurs
Station
Affichage
Infos & localisation pour LFBD (07510) | Aide pour décoder les METARs

Observations prises le 2019-09-17 à 02H00 UTC à BORDEAUX/MERIGNA, FR (LFBD)

Température: 20.0 Celsius

Point de rosée: 14.0 Celsius

Humidité relative: 68%

Vents: Variable à 4 km/h ou 2 noeuds.

Pression au niveau moyen de la mer: 101.70 kilopascals.

Observation METAR:

LFBD 170200Z AUTO VRB02KT CAVOK 20/14 Q1017 NOSIG=